sensor_id;sensor_type;location;lat;lon;timestamp;P1;durP1;ratioP1;P2;durP2;ratioP2
59308;SDS011;48433;53.016;-2.260;2022-07-29T00:01:54;11.85;;;2.70;;
59308;SDS011;48433;53.016;-2.260;2022-07-29T00:04:21;7.28;;;2.42;;
59308;SDS011;48433;53.016;-2.260;2022-07-29T00:06:49;8.68;;;2.65;;
59308;SDS011;48433;53.016;-2.260;2022-07-29T00:09:17;8.63;;;2.40;;
59308;SDS011;48433;53.016;-2.260;2022-07-29T00:11:44;6.93;;;2.45;;
59308;SDS011;48433;53.016;-2.260;2022-07-29T00:14:12;9.60;;;2.22;;
59308;SDS011;48433;53.016;-2.260;2022-07-29T00:16:40;6.13;;;2.50;;
59308;SDS011;48433;53.016;-2.260;2022-07-29T00:19:07;8.00;;;2.25;;
59308;SDS011;48433;53.016;-2.260;2022-07-29T00:21:36;8.02;;;2.55;;
59308;SDS011;48433;53.016;-2.260;2022-07-29T00:24:04;7.72;;;2.35;;
59308;SDS011;48433;53.016;-2.260;2022-07-29T00:26:32;4.68;;;2.00;;
59308;SDS011;48433;53.016;-2.260;2022-07-29T00:29:00;8.27;;;2.47;;
59308;SDS011;48433;53.016;-2.260;2022-07-29T00:31:50;8.98;;;1.90;;
59308;SDS011;48433;53.016;-2.260;2022-07-29T00:34:18;7.07;;;1.85;;
59308;SDS011;48433;53.016;-2.260;2022-07-29T00:37:04;11.63;;;2.17;;
59308;SDS011;48433;53.016;-2.260;2022-07-29T00:39:33;8.25;;;2.17;;
59308;SDS011;48433;53.016;-2.260;2022-07-29T00:42:02;11.38;;;2.17;;
59308;SDS011;48433;53.016;-2.260;2022-07-29T00:44:35;6.53;;;1.63;;
59308;SDS011;48433;53.016;-2.260;2022-07-29T00:47:04;10.43;;;2.97;;
59308;SDS011;48433;53.016;-2.260;2022-07-29T00:49:33;7.57;;;2.10;;
59308;SDS011;48433;53.016;-2.260;2022-07-29T00:52:02;6.55;;;2.20;;
59308;SDS011;48433;53.016;-2.260;2022-07-29T00:54:31;9.13;;;2.08;;
59308;SDS011;48433;53.016;-2.260;2022-07-29T00:57:00;8.13;;;2.85;;
59308;SDS011;48433;53.016;-2.260;2022-07-29T00:59:28;12.45;;;2.30;;
59308;SDS011;48433;53.016;-2.260;2022-07-29T01:02:04;6.07;;;1.80;;
59308;SDS011;48433;53.016;-2.260;2022-07-29T01:04:32;8.63;;;2.00;;
59308;SDS011;48433;53.016;-2.260;2022-07-29T01:07:01;7.57;;;2.42;;
59308;SDS011;48433;53.016;-2.260;2022-07-29T01:09:31;9.05;;;2.13;;
59308;SDS011;48433;53.016;-2.260;2022-07-29T01:12:16;8.55;;;2.33;;
59308;SDS011;48433;53.016;-2.260;2022-07-29T01:14:51;9.77;;;2.58;;
59308;SDS011;48433;53.016;-2.260;2022-07-29T01:25:06;7.03;;;2.53;;
59308;SDS011;48433;53.016;-2.260;2022-07-29T01:30:41;5.47;;;1.70;;
59308;SDS011;48433;53.016;-2.260;2022-07-29T01:33:11;5.53;;;1.98;;
59308;SDS011;48433;53.016;-2.260;2022-07-29T01:36:06;6.30;;;1.85;;
59308;SDS011;48433;53.016;-2.260;2022-07-29T01:38:39;7.70;;;2.08;;
59308;SDS011;48433;53.016;-2.260;2022-07-29T01:41:10;8.88;;;2.63;;
59308;SDS011;48433;53.016;-2.260;2022-07-29T01:43:44;6.32;;;1.75;;
59308;SDS011;48433;53.016;-2.260;2022-07-29T01:46:35;8.18;;;2.17;;
59308;SDS011;48433;53.016;-2.260;2022-07-29T01:49:16;5.70;;;2.47;;
59308;SDS011;48433;53.016;-2.260;2022-07-29T01:54:20;7.90;;;2.42;;
59308;SDS011;48433;53.016;-2.260;2022-07-29T01:57:01;6.25;;;1.80;;
59308;SDS011;48433;53.016;-2.260;2022-07-29T01:59:31;5.15;;;1.80;;
59308;SDS011;48433;53.016;-2.260;2022-07-29T02:02:02;8.00;;;2.00;;
59308;SDS011;48433;53.016;-2.260;2022-07-29T02:04:31;6.57;;;2.00;;
59308;SDS011;48433;53.016;-2.260;2022-07-29T02:07:03;10.65;;;2.03;;
59308;SDS011;48433;53.016;-2.260;2022-07-29T02:09:34;8.15;;;2.80;;
59308;SDS011;48433;53.016;-2.260;2022-07-29T02:12:03;7.03;;;2.28;;
59308;SDS011;48433;53.016;-2.260;2022-07-29T02:14:34;7.30;;;1.77;;
59308;SDS011;48433;53.016;-2.260;2022-07-29T02:17:05;6.70;;;1.75;;
59308;SDS011;48433;53.016;-2.260;2022-07-29T02:19:33;5.45;;;1.75;;
59308;SDS011;48433;53.016;-2.260;2022-07-29T02:22:03;8.57;;;1.98;;
59308;SDS011;48433;53.016;-2.260;2022-07-29T02:24:32;6.45;;;1.73;;
59308;SDS011;48433;53.016;-2.260;2022-07-29T02:29:31;7.75;;;1.75;;
59308;SDS011;48433;53.016;-2.260;2022-07-29T02:32:00;4.35;;;1.45;;
59308;SDS011;48433;53.016;-2.260;2022-07-29T02:34:31;10.95;;;1.80;;
59308;SDS011;48433;53.016;-2.260;2022-07-29T02:37:00;4.85;;;1.45;;
59308;SDS011;48433;53.016;-2.260;2022-07-29T02:39:29;6.78;;;1.90;;
59308;SDS011;48433;53.016;-2.260;2022-07-29T02:41:59;6.80;;;1.58;;
59308;SDS011;48433;53.016;-2.260;2022-07-29T02:44:30;7.32;;;1.90;;
59308;SDS011;48433;53.016;-2.260;2022-07-29T02:47:43;6.07;;;1.63;;
59308;SDS011;48433;53.016;-2.260;2022-07-29T03:00:23;6.43;;;1.55;;
59308;SDS011;48433;53.016;-2.260;2022-07-29T03:02:53;6.22;;;1.70;;
59308;SDS011;48433;53.016;-2.260;2022-07-29T03:05:24;8.02;;;1.83;;
59308;SDS011;48433;53.016;-2.260;2022-07-29T03:07:55;6.65;;;1.48;;
59308;SDS011;48433;53.016;-2.260;2022-07-29T03:10:25;6.53;;;1.17;;
59308;SDS011;48433;53.016;-2.260;2022-07-29T03:12:54;7.80;;;2.22;;
59308;SDS011;48433;53.016;-2.260;2022-07-29T03:15:25;6.72;;;1.98;;
59308;SDS011;48433;53.016;-2.260;2022-07-29T03:17:53;4.18;;;1.40;;
59308;SDS011;48433;53.016;-2.260;2022-07-29T03:20:22;4.97;;;1.70;;
59308;SDS011;48433;53.016;-2.260;2022-07-29T03:22:50;8.05;;;1.75;;
59308;SDS011;48433;53.016;-2.260;2022-07-29T03:25:18;6.38;;;1.65;;
59308;SDS011;48433;53.016;-2.260;2022-07-29T03:27:47;5.40;;;1.58;;
59308;SDS011;48433;53.016;-2.260;2022-07-29T03:30:15;7.13;;;1.92;;
59308;SDS011;48433;53.016;-2.260;2022-07-29T03:32:48;4.80;;;1.60;;
59308;SDS011;48433;53.016;-2.260;2022-07-29T03:35:19;8.73;;;1.67;;
59308;SDS011;48433;53.016;-2.260;2022-07-29T03:37:47;6.25;;;1.60;;
59308;SDS011;48433;53.016;-2.260;2022-07-29T03:40:24;6.05;;;2.03;;
59308;SDS011;48433;53.016;-2.260;2022-07-29T03:42:57;8.77;;;1.83;;
59308;SDS011;48433;53.016;-2.260;2022-07-29T03:45:27;6.75;;;1.67;;
59308;SDS011;48433;53.016;-2.260;2022-07-29T03:47:59;6.32;;;1.80;;
59308;SDS011;48433;53.016;-2.260;2022-07-29T03:50:32;8.15;;;1.80;;
59308;SDS011;48433;53.016;-2.260;2022-07-29T03:53:02;6.03;;;2.50;;
59308;SDS011;48433;53.016;-2.260;2022-07-29T03:55:31;5.00;;;1.80;;
59308;SDS011;48433;53.016;-2.260;2022-07-29T03:58:03;10.32;;;1.85;;
59308;SDS011;48433;53.016;-2.260;2022-07-29T04:00:31;6.15;;;2.20;;
59308;SDS011;48433;53.016;-2.260;2022-07-29T04:03:00;9.43;;;1.83;;
59308;SDS011;48433;53.016;-2.260;2022-07-29T04:05:36;7.03;;;2.75;;
59308;SDS011;48433;53.016;-2.260;2022-07-29T04:08:04;7.95;;;1.92;;
59308;SDS011;48433;53.016;-2.260;2022-07-29T04:10:32;6.32;;;2.15;;
59308;SDS011;48433;53.016;-2.260;2022-07-29T04:13:01;5.90;;;2.40;;
59308;SDS011;48433;53.016;-2.260;2022-07-29T04:15:29;5.28;;;2.10;;
59308;SDS011;48433;53.016;-2.260;2022-07-29T04:17:58;5.25;;;1.98;;
59308;SDS011;48433;53.016;-2.260;2022-07-29T04:20:26;8.60;;;2.45;;
59308;SDS011;48433;53.016;-2.260;2022-07-29T04:22:54;5.07;;;1.90;;
59308;SDS011;48433;53.016;-2.260;2022-07-29T04:25:21;10.73;;;2.63;;
59308;SDS011;48433;53.016;-2.260;2022-07-29T04:27:49;7.57;;;2.53;;
59308;SDS011;48433;53.016;-2.260;2022-07-29T04:30:33;7.07;;;2.72;;
59308;SDS011;48433;53.016;-2.260;2022-07-29T04:33:02;7.60;;;2.53;;
59308;SDS011;48433;53.016;-2.260;2022-07-29T04:35:35;6.03;;;2.10;;
59308;SDS011;48433;53.016;-2.260;2022-07-29T04:38:13;8.80;;;2.20;;
59308;SDS011;48433;53.016;-2.260;2022-07-29T04:40:43;6.97;;;2.20;;
59308;SDS011;48433;53.016;-2.260;2022-07-29T04:43:11;8.55;;;2.60;;
59308;SDS011;48433;53.016;-2.260;2022-07-29T04:45:41;8.35;;;2.42;;
59308;SDS011;48433;53.016;-2.260;2022-07-29T04:48:09;6.10;;;2.35;;
59308;SDS011;48433;53.016;-2.260;2022-07-29T04:50:39;8.77;;;2.33;;
59308;SDS011;48433;53.016;-2.260;2022-07-29T04:53:07;5.32;;;2.53;;
59308;SDS011;48433;53.016;-2.260;2022-07-29T04:55:35;8.63;;;2.53;;
59308;SDS011;48433;53.016;-2.260;2022-07-29T04:58:05;5.82;;;2.47;;
59308;SDS011;48433;53.016;-2.260;2022-07-29T05:00:32;7.75;;;2.30;;
59308;SDS011;48433;53.016;-2.260;2022-07-29T05:03:01;8.85;;;2.38;;
59308;SDS011;48433;53.016;-2.260;2022-07-29T05:05:29;6.25;;;2.63;;
59308;SDS011;48433;53.016;-2.260;2022-07-29T05:07:57;9.45;;;3.00;;
59308;SDS011;48433;53.016;-2.260;2022-07-29T05:10:24;6.53;;;2.78;;
59308;SDS011;48433;53.016;-2.260;2022-07-29T05:12:52;8.15;;;2.50;;
59308;SDS011;48433;53.016;-2.260;2022-07-29T05:15:20;7.30;;;3.38;;
59308;SDS011;48433;53.016;-2.260;2022-07-29T05:17:47;9.90;;;2.55;;
59308;SDS011;48433;53.016;-2.260;2022-07-29T05:20:15;5.22;;;2.60;;
59308;SDS011;48433;53.016;-2.260;2022-07-29T05:22:43;9.45;;;2.78;;
59308;SDS011;48433;53.016;-2.260;2022-07-29T05:25:10;9.45;;;2.55;;
59308;SDS011;48433;53.016;-2.260;2022-07-29T05:27:38;14.57;;;3.13;;
59308;SDS011;48433;53.016;-2.260;2022-07-29T05:30:06;6.75;;;2.95;;
59308;SDS011;48433;53.016;-2.260;2022-07-29T05:32:34;7.95;;;3.38;;
59308;SDS011;48433;53.016;-2.260;2022-07-29T05:35:02;7.47;;;2.75;;
59308;SDS011;48433;53.016;-2.260;2022-07-29T05:37:29;7.38;;;3.08;;
59308;SDS011;48433;53.016;-2.260;2022-07-29T05:39:57;9.27;;;2.90;;
59308;SDS011;48433;53.016;-2.260;2022-07-29T05:42:26;9.75;;;2.90;;
59308;SDS011;48433;53.016;-2.260;2022-07-29T05:44:53;6.80;;;2.92;;
59308;SDS011;48433;53.016;-2.260;2022-07-29T05:47:21;6.80;;;2.60;;
59308;SDS011;48433;53.016;-2.260;2022-07-29T05:49:51;8.63;;;2.97;;
59308;SDS011;48433;53.016;-2.260;2022-07-29T05:52:19;8.73;;;2.58;;
59308;SDS011;48433;53.016;-2.260;2022-07-29T05:54:47;8.75;;;2.65;;
59308;SDS011;48433;53.016;-2.260;2022-07-29T05:57:18;8.18;;;3.20;;
59308;SDS011;48433;53.016;-2.260;2022-07-29T05:59:47;10.38;;;3.00;;
59308;SDS011;48433;53.016;-2.260;2022-07-29T06:02:15;12.57;;;2.95;;
59308;SDS011;48433;53.016;-2.260;2022-07-29T06:04:43;7.40;;;2.30;;
59308;SDS011;48433;53.016;-2.260;2022-07-29T06:07:11;8.95;;;2.67;;
59308;SDS011;48433;53.016;-2.260;2022-07-29T06:09:39;8.40;;;2.88;;
59308;SDS011;48433;53.016;-2.260;2022-07-29T06:12:07;7.80;;;3.03;;
59308;SDS011;48433;53.016;-2.260;2022-07-29T06:14:35;8.82;;;3.10;;
59308;SDS011;48433;53.016;-2.260;2022-07-29T06:17:04;7.65;;;2.75;;
59308;SDS011;48433;53.016;-2.260;2022-07-29T06:19:35;9.82;;;3.00;;
59308;SDS011;48433;53.016;-2.260;2022-07-29T06:22:03;10.35;;;3.08;;
59308;SDS011;48433;53.016;-2.260;2022-07-29T06:24:31;6.57;;;3.35;;
59308;SDS011;48433;53.016;-2.260;2022-07-29T06:26:59;13.93;;;3.10;;
59308;SDS011;48433;53.016;-2.260;2022-07-29T06:29:26;6.15;;;2.42;;
59308;SDS011;48433;53.016;-2.260;2022-07-29T06:31:54;9.95;;;3.13;;
59308;SDS011;48433;53.016;-2.260;2022-07-29T06:34:22;9.15;;;3.10;;
59308;SDS011;48433;53.016;-2.260;2022-07-29T06:36:50;6.88;;;3.15;;
59308;SDS011;48433;53.016;-2.260;2022-07-29T06:39:20;7.57;;;3.15;;
59308;SDS011;48433;53.016;-2.260;2022-07-29T06:41:48;7.43;;;3.20;;
59308;SDS011;48433;53.016;-2.260;2022-07-29T06:44:17;9.10;;;3.40;;
59308;SDS011;48433;53.016;-2.260;2022-07-29T06:46:46;7.07;;;2.85;;
59308;SDS011;48433;53.016;-2.260;2022-07-29T06:49:16;7.28;;;2.72;;
59308;SDS011;48433;53.016;-2.260;2022-07-29T06:51:43;8.55;;;2.63;;
59308;SDS011;48433;53.016;-2.260;2022-07-29T06:54:11;9.38;;;2.92;;
59308;SDS011;48433;53.016;-2.260;2022-07-29T06:56:39;7.40;;;2.72;;
59308;SDS011;48433;53.016;-2.260;2022-07-29T06:59:09;9.68;;;3.00;;
59308;SDS011;48433;53.016;-2.260;2022-07-29T07:01:39;7.68;;;2.80;;
59308;SDS011;48433;53.016;-2.260;2022-07-29T07:04:08;13.75;;;3.13;;
59308;SDS011;48433;53.016;-2.260;2022-07-29T07:06:36;13.75;;;3.28;;
59308;SDS011;48433;53.016;-2.260;2022-07-29T07:09:04;7.63;;;2.30;;
59308;SDS011;48433;53.016;-2.260;2022-07-29T07:11:33;8.82;;;3.15;;
59308;SDS011;48433;53.016;-2.260;2022-07-29T07:14:01;6.65;;;2.80;;
59308;SDS011;48433;53.016;-2.260;2022-07-29T07:16:30;7.80;;;2.70;;
59308;SDS011;48433;53.016;-2.260;2022-07-29T07:18:59;8.95;;;2.78;;
59308;SDS011;48433;53.016;-2.260;2022-07-29T07:21:27;9.23;;;2.85;;
59308;SDS011;48433;53.016;-2.260;2022-07-29T07:23:57;9.95;;;2.65;;
59308;SDS011;48433;53.016;-2.260;2022-07-29T07:26:25;7.32;;;3.25;;
59308;SDS011;48433;53.016;-2.260;2022-07-29T07:28:54;8.32;;;2.75;;
59308;SDS011;48433;53.016;-2.260;2022-07-29T07:31:21;8.52;;;2.70;;
59308;SDS011;48433;53.016;-2.260;2022-07-29T07:33:49;8.55;;;2.70;;
59308;SDS011;48433;53.016;-2.260;2022-07-29T07:36:17;7.65;;;2.88;;
59308;SDS011;48433;53.016;-2.260;2022-07-29T07:38:44;7.72;;;2.83;;
59308;SDS011;48433;53.016;-2.260;2022-07-29T07:41:12;13.00;;;2.78;;
59308;SDS011;48433;53.016;-2.260;2022-07-29T07:43:39;11.60;;;2.85;;
59308;SDS011;48433;53.016;-2.260;2022-07-29T07:46:07;12.65;;;3.28;;
59308;SDS011;48433;53.016;-2.260;2022-07-29T07:48:35;8.15;;;2.80;;
59308;SDS011;48433;53.016;-2.260;2022-07-29T07:51:03;8.02;;;2.83;;
59308;SDS011;48433;53.016;-2.260;2022-07-29T07:53:30;11.07;;;2.50;;
59308;SDS011;48433;53.016;-2.260;2022-07-29T07:55:58;8.85;;;2.85;;
59308;SDS011;48433;53.016;-2.260;2022-07-29T07:58:37;7.45;;;2.90;;
59308;SDS011;48433;53.016;-2.260;2022-07-29T08:01:05;8.05;;;2.63;;
59308;SDS011;48433;53.016;-2.260;2022-07-29T08:03:33;10.27;;;3.17;;
59308;SDS011;48433;53.016;-2.260;2022-07-29T08:06:02;7.70;;;2.88;;
59308;SDS011;48433;53.016;-2.260;2022-07-29T08:08:30;11.45;;;2.83;;
59308;SDS011;48433;53.016;-2.260;2022-07-29T08:10:58;9.70;;;3.33;;
59308;SDS011;48433;53.016;-2.260;2022-07-29T08:13:34;10.25;;;2.90;;
59308;SDS011;48433;53.016;-2.260;2022-07-29T08:16:02;8.40;;;3.17;;
59308;SDS011;48433;53.016;-2.260;2022-07-29T08:18:39;10.43;;;3.28;;
59308;SDS011;48433;53.016;-2.260;2022-07-29T08:21:07;8.85;;;2.83;;
59308;SDS011;48433;53.016;-2.260;2022-07-29T08:23:35;6.97;;;3.00;;
59308;SDS011;48433;53.016;-2.260;2022-07-29T08:26:15;8.93;;;2.78;;
59308;SDS011;48433;53.016;-2.260;2022-07-29T08:28:43;11.80;;;3.20;;
59308;SDS011;48433;53.016;-2.260;2022-07-29T08:31:13;9.18;;;2.92;;
59308;SDS011;48433;53.016;-2.260;2022-07-29T08:33:41;7.70;;;2.20;;
59308;SDS011;48433;53.016;-2.260;2022-07-29T08:36:09;6.93;;;2.60;;
59308;SDS011;48433;53.016;-2.260;2022-07-29T08:38:37;14.13;;;3.33;;
59308;SDS011;48433;53.016;-2.260;2022-07-29T08:41:05;8.45;;;3.20;;
59308;SDS011;48433;53.016;-2.260;2022-07-29T08:43:32;10.10;;;3.15;;
59308;SDS011;48433;53.016;-2.260;2022-07-29T08:46:04;7.65;;;2.92;;
59308;SDS011;48433;53.016;-2.260;2022-07-29T08:48:32;9.35;;;2.90;;
59308;SDS011;48433;53.016;-2.260;2022-07-29T08:51:00;8.73;;;2.97;;
59308;SDS011;48433;53.016;-2.260;2022-07-29T08:53:30;11.23;;;2.92;;
59308;SDS011;48433;53.016;-2.260;2022-07-29T08:55:59;6.05;;;2.78;;
59308;SDS011;48433;53.016;-2.260;2022-07-29T08:58:27;11.48;;;3.40;;
59308;SDS011;48433;53.016;-2.260;2022-07-29T09:01:03;10.23;;;2.90;;
59308;SDS011;48433;53.016;-2.260;2022-07-29T09:03:34;10.30;;;2.85;;
59308;SDS011;48433;53.016;-2.260;2022-07-29T09:06:04;7.60;;;2.90;;
59308;SDS011;48433;53.016;-2.260;2022-07-29T09:08:33;11.43;;;3.28;;
59308;SDS011;48433;53.016;-2.260;2022-07-29T09:11:01;8.68;;;2.85;;
59308;SDS011;48433;53.016;-2.260;2022-07-29T09:13:31;6.80;;;2.65;;
59308;SDS011;48433;53.016;-2.260;2022-07-29T09:15:59;11.38;;;2.95;;
59308;SDS011;48433;53.016;-2.260;2022-07-29T09:21:10;9.10;;;2.72;;
59308;SDS011;48433;53.016;-2.260;2022-07-29T09:26:44;8.32;;;2.55;;
59308;SDS011;48433;53.016;-2.260;2022-07-29T09:29:16;6.28;;;2.60;;
59308;SDS011;48433;53.016;-2.260;2022-07-29T09:31:50;8.52;;;2.75;;
59308;SDS011;48433;53.016;-2.260;2022-07-29T09:34:26;6.75;;;2.55;;
59308;SDS011;48433;53.016;-2.260;2022-07-29T09:36:57;8.15;;;2.67;;
59308;SDS011;48433;53.016;-2.260;2022-07-29T09:39:35;8.63;;;2.50;;
59308;SDS011;48433;53.016;-2.260;2022-07-29T09:42:05;11.25;;;2.65;;
59308;SDS011;48433;53.016;-2.260;2022-07-29T09:44:43;10.23;;;2.70;;
59308;SDS011;48433;53.016;-2.260;2022-07-29T09:47:12;11.98;;;2.88;;
59308;SDS011;48433;53.016;-2.260;2022-07-29T09:49:50;9.32;;;2.92;;
59308;SDS011;48433;53.016;-2.260;2022-07-29T09:52:20;9.25;;;2.70;;
59308;SDS011;48433;53.016;-2.260;2022-07-29T09:54:48;10.07;;;3.72;;
59308;SDS011;48433;53.016;-2.260;2022-07-29T09:57:26;9.60;;;3.20;;
59308;SDS011;48433;53.016;-2.260;2022-07-29T09:59:58;10.38;;;3.05;;
59308;SDS011;48433;53.016;-2.260;2022-07-29T10:02:39;8.00;;;2.90;;
59308;SDS011;48433;53.016;-2.260;2022-07-29T10:07:47;9.68;;;2.53;;
59308;SDS011;48433;53.016;-2.260;2022-07-29T10:10:24;12.70;;;3.60;;
59308;SDS011;48433;53.016;-2.260;2022-07-29T10:12:54;8.50;;;3.25;;
59308;SDS011;48433;53.016;-2.260;2022-07-29T10:15:34;9.88;;;2.83;;
59308;SDS011;48433;53.016;-2.260;2022-07-29T10:18:07;10.70;;;3.03;;
59308;SDS011;48433;53.016;-2.260;2022-07-29T10:20:36;8.00;;;3.28;;
59308;SDS011;48433;53.016;-2.260;2022-07-29T10:23:05;9.82;;;3.17;;
59308;SDS011;48433;53.016;-2.260;2022-07-29T10:25:33;9.40;;;2.80;;
59308;SDS011;48433;53.016;-2.260;2022-07-29T10:28:01;6.53;;;2.90;;
59308;SDS011;48433;53.016;-2.260;2022-07-29T10:30:28;9.90;;;3.30;;
59308;SDS011;48433;53.016;-2.260;2022-07-29T10:44:42;9.95;;;3.20;;
59308;SDS011;48433;53.016;-2.260;2022-07-29T10:47:19;8.40;;;2.80;;
59308;SDS011;48433;53.016;-2.260;2022-07-29T10:50:00;10.65;;;2.78;;
59308;SDS011;48433;53.016;-2.260;2022-07-29T10:55:51;7.78;;;3.25;;
59308;SDS011;48433;53.016;-2.260;2022-07-29T11:00:46;9.65;;;3.08;;
59308;SDS011;48433;53.016;-2.260;2022-07-29T11:06:16;12.98;;;3.50;;
59308;SDS011;48433;53.016;-2.260;2022-07-29T11:11:46;11.68;;;3.17;;
59308;SDS011;48433;53.016;-2.260;2022-07-29T11:17:02;10.55;;;3.88;;
59308;SDS011;48433;53.016;-2.260;2022-07-29T11:19:32;9.73;;;3.10;;
59308;SDS011;48433;53.016;-2.260;2022-07-29T11:22:01;7.38;;;2.72;;
59308;SDS011;48433;53.016;-2.260;2022-07-29T11:24:31;9.00;;;3.20;;
59308;SDS011;48433;53.016;-2.260;2022-07-29T11:27:07;9.32;;;2.88;;
59308;SDS011;48433;53.016;-2.260;2022-07-29T11:32:19;10.07;;;3.50;;
59308;SDS011;48433;53.016;-2.260;2022-07-29T11:34:50;7.53;;;3.58;;
59308;SDS011;48433;53.016;-2.260;2022-07-29T11:37:45;9.50;;;3.75;;
59308;SDS011;48433;53.016;-2.260;2022-07-29T11:40:23;11.32;;;4.45;;
59308;SDS011;48433;53.016;-2.260;2022-07-29T11:42:51;11.20;;;3.58;;
59308;SDS011;48433;53.016;-2.260;2022-07-29T11:45:21;10.15;;;3.90;;
59308;SDS011;48433;53.016;-2.260;2022-07-29T11:48:15;9.70;;;3.10;;
59308;SDS011;48433;53.016;-2.260;2022-07-29T11:50:58;11.95;;;4.22;;
59308;SDS011;48433;53.016;-2.260;2022-07-29T11:53:26;10.35;;;3.67;;
59308;SDS011;48433;53.016;-2.260;2022-07-29T11:55:58;11.48;;;4.00;;
59308;SDS011;48433;53.016;-2.260;2022-07-29T11:58:30;10.05;;;3.60;;
59308;SDS011;48433;53.016;-2.260;2022-07-29T12:00:58;10.85;;;3.88;;
59308;SDS011;48433;53.016;-2.260;2022-07-29T12:03:31;10.23;;;4.15;;
59308;SDS011;48433;53.016;-2.260;2022-07-29T12:06:12;10.65;;;3.83;;
59308;SDS011;48433;53.016;-2.260;2022-07-29T12:08:44;11.82;;;3.67;;
59308;SDS011;48433;53.016;-2.260;2022-07-29T12:11:19;10.65;;;3.60;;
59308;SDS011;48433;53.016;-2.260;2022-07-29T12:13:50;9.27;;;3.85;;
59308;SDS011;48433;53.016;-2.260;2022-07-29T12:16:19;8.68;;;3.65;;
59308;SDS011;48433;53.016;-2.260;2022-07-29T12:18:56;7.88;;;3.15;;
59308;SDS011;48433;53.016;-2.260;2022-07-29T12:21:25;11.02;;;3.83;;
59308;SDS011;48433;53.016;-2.260;2022-07-29T12:23:55;12.65;;;4.28;;
59308;SDS011;48433;53.016;-2.260;2022-07-29T12:26:36;7.65;;;3.33;;
59308;SDS011;48433;53.016;-2.260;2022-07-29T12:29:15;9.27;;;3.38;;
59308;SDS011;48433;53.016;-2.260;2022-07-29T12:32:00;7.85;;;3.30;;
59308;SDS011;48433;53.016;-2.260;2022-07-29T12:34:29;12.68;;;4.57;;
59308;SDS011;48433;53.016;-2.260;2022-07-29T12:36:57;9.48;;;4.88;;
59308;SDS011;48433;53.016;-2.260;2022-07-29T12:39:26;11.77;;;5.35;;
59308;SDS011;48433;53.016;-2.260;2022-07-29T12:41:55;9.85;;;4.07;;
59308;SDS011;48433;53.016;-2.260;2022-07-29T12:44:46;13.43;;;4.57;;
59308;SDS011;48433;53.016;-2.260;2022-07-29T12:47:15;12.00;;;4.43;;
59308;SDS011;48433;53.016;-2.260;2022-07-29T12:49:45;9.23;;;4.18;;
59308;SDS011;48433;53.016;-2.260;2022-07-29T12:52:23;9.90;;;4.75;;
59308;SDS011;48433;53.016;-2.260;2022-07-29T12:54:59;10.05;;;4.28;;
59308;SDS011;48433;53.016;-2.260;2022-07-29T12:57:28;9.57;;;4.38;;
59308;SDS011;48433;53.016;-2.260;2022-07-29T13:02:38;8.48;;;4.03;;
59308;SDS011;48433;53.016;-2.260;2022-07-29T13:05:09;10.93;;;4.55;;
59308;SDS011;48433;53.016;-2.260;2022-07-29T13:07:39;12.70;;;4.60;;
59308;SDS011;48433;53.016;-2.260;2022-07-29T13:10:23;13.18;;;4.70;;
59308;SDS011;48433;53.016;-2.260;2022-07-29T13:13:08;10.48;;;3.95;;
59308;SDS011;48433;53.016;-2.260;2022-07-29T13:15:37;12.05;;;4.88;;
59308;SDS011;48433;53.016;-2.260;2022-07-29T13:20:57;8.88;;;4.20;;
59308;SDS011;48433;53.016;-2.260;2022-07-29T13:26:09;9.20;;;4.45;;
59308;SDS011;48433;53.016;-2.260;2022-07-29T13:28:43;13.30;;;4.80;;
59308;SDS011;48433;53.016;-2.260;2022-07-29T13:31:11;10.27;;;4.47;;
59308;SDS011;48433;53.016;-2.260;2022-07-29T13:33:40;10.88;;;4.18;;
59308;SDS011;48433;53.016;-2.260;2022-07-29T13:36:07;10.70;;;5.13;;
59308;SDS011;48433;53.016;-2.260;2022-07-29T13:38:35;12.10;;;5.25;;
59308;SDS011;48433;53.016;-2.260;2022-07-29T13:41:03;8.38;;;4.13;;
59308;SDS011;48433;53.016;-2.260;2022-07-29T13:43:31;12.35;;;4.47;;
59308;SDS011;48433;53.016;-2.260;2022-07-29T13:45:59;10.50;;;4.95;;
59308;SDS011;48433;53.016;-2.260;2022-07-29T13:48:27;10.25;;;4.55;;
59308;SDS011;48433;53.016;-2.260;2022-07-29T13:50:54;10.45;;;4.35;;
59308;SDS011;48433;53.016;-2.260;2022-07-29T13:53:23;10.23;;;3.80;;
59308;SDS011;48433;53.016;-2.260;2022-07-29T13:55:53;16.92;;;5.63;;
59308;SDS011;48433;53.016;-2.260;2022-07-29T13:58:21;8.02;;;4.25;;
59308;SDS011;48433;53.016;-2.260;2022-07-29T14:00:49;10.95;;;5.38;;
59308;SDS011;48433;53.016;-2.260;2022-07-29T14:03:17;13.27;;;4.18;;
59308;SDS011;48433;53.016;-2.260;2022-07-29T14:05:45;11.32;;;4.50;;
59308;SDS011;48433;53.016;-2.260;2022-07-29T14:08:13;11.00;;;4.53;;
59308;SDS011;48433;53.016;-2.260;2022-07-29T14:10:40;11.38;;;4.38;;
59308;SDS011;48433;53.016;-2.260;2022-07-29T14:13:08;15.75;;;4.80;;
59308;SDS011;48433;53.016;-2.260;2022-07-29T14:15:51;9.18;;;4.10;;
59308;SDS011;48433;53.016;-2.260;2022-07-29T14:18:19;13.02;;;3.90;;
59308;SDS011;48433;53.016;-2.260;2022-07-29T14:20:47;11.43;;;4.05;;
59308;SDS011;48433;53.016;-2.260;2022-07-29T14:23:15;9.70;;;3.50;;
59308;SDS011;48433;53.016;-2.260;2022-07-29T14:25:46;9.90;;;3.70;;
59308;SDS011;48433;53.016;-2.260;2022-07-29T14:28:15;8.95;;;3.90;;
59308;SDS011;48433;53.016;-2.260;2022-07-29T14:30:43;13.00;;;4.70;;
59308;SDS011;48433;53.016;-2.260;2022-07-29T14:33:10;11.15;;;4.75;;
59308;SDS011;48433;53.016;-2.260;2022-07-29T14:35:39;10.20;;;4.70;;
59308;SDS011;48433;53.016;-2.260;2022-07-29T14:38:06;9.23;;;4.63;;
59308;SDS011;48433;53.016;-2.260;2022-07-29T14:40:34;11.35;;;4.00;;
59308;SDS011;48433;53.016;-2.260;2022-07-29T14:43:02;8.93;;;3.88;;
59308;SDS011;48433;53.016;-2.260;2022-07-29T14:45:29;8.45;;;4.43;;
59308;SDS011;48433;53.016;-2.260;2022-07-29T14:47:58;10.93;;;4.05;;
59308;SDS011;48433;53.016;-2.260;2022-07-29T14:50:26;11.52;;;3.97;;
59308;SDS011;48433;53.016;-2.260;2022-07-29T14:52:58;11.73;;;5.03;;
59308;SDS011;48433;53.016;-2.260;2022-07-29T14:55:27;10.75;;;4.30;;
59308;SDS011;48433;53.016;-2.260;2022-07-29T14:57:54;10.75;;;4.50;;
59308;SDS011;48433;53.016;-2.260;2022-07-29T15:00:34;12.10;;;5.13;;
59308;SDS011;48433;53.016;-2.260;2022-07-29T15:03:03;8.73;;;4.70;;
59308;SDS011;48433;53.016;-2.260;2022-07-29T15:05:33;12.77;;;4.47;;
59308;SDS011;48433;53.016;-2.260;2022-07-29T15:08:02;7.88;;;4.50;;
59308;SDS011;48433;53.016;-2.260;2022-07-29T15:10:30;10.35;;;4.18;;
59308;SDS011;48433;53.016;-2.260;2022-07-29T15:12:58;10.45;;;3.78;;
59308;SDS011;48433;53.016;-2.260;2022-07-29T15:15:25;11.63;;;4.70;;
59308;SDS011;48433;53.016;-2.260;2022-07-29T15:17:54;10.43;;;4.05;;
59308;SDS011;48433;53.016;-2.260;2022-07-29T15:20:22;11.80;;;4.30;;
59308;SDS011;48433;53.016;-2.260;2022-07-29T15:22:52;10.32;;;4.80;;
59308;SDS011;48433;53.016;-2.260;2022-07-29T15:25:22;12.63;;;4.82;;
59308;SDS011;48433;53.016;-2.260;2022-07-29T15:27:51;13.90;;;4.47;;
59308;SDS011;48433;53.016;-2.260;2022-07-29T15:30:23;12.05;;;4.57;;
59308;SDS011;48433;53.016;-2.260;2022-07-29T15:33:00;10.45;;;3.67;;
59308;SDS011;48433;53.016;-2.260;2022-07-29T15:35:31;13.05;;;4.50;;
59308;SDS011;48433;53.016;-2.260;2022-07-29T15:38:07;8.02;;;3.63;;
59308;SDS011;48433;53.016;-2.260;2022-07-29T15:40:36;10.50;;;3.70;;
59308;SDS011;48433;53.016;-2.260;2022-07-29T15:45:42;9.63;;;3.75;;
59308;SDS011;48433;53.016;-2.260;2022-07-29T15:48:29;8.35;;;3.83;;
59308;SDS011;48433;53.016;-2.260;2022-07-29T15:50:58;9.30;;;3.55;;
59308;SDS011;48433;53.016;-2.260;2022-07-29T15:53:27;12.13;;;4.65;;
59308;SDS011;48433;53.016;-2.260;2022-07-29T15:55:54;9.85;;;3.75;;
59308;SDS011;48433;53.016;-2.260;2022-07-29T15:58:22;13.18;;;4.28;;
59308;SDS011;48433;53.016;-2.260;2022-07-29T16:00:49;11.80;;;4.30;;
59308;SDS011;48433;53.016;-2.260;2022-07-29T16:03:17;10.90;;;4.40;;
59308;SDS011;48433;53.016;-2.260;2022-07-29T16:05:45;10.00;;;4.15;;